Time;durP1;ratioP1;P1;durP2;ratioP2;P2;SDS_P1;SDS_P2;PMS_P1;PMS_P2;Temp;Humidity;BMP_temperature;BMP_pressure;BME280_temperature;BME280_humidity;BME280_pressure;Samples;Min_cycle;Max_cycle;Signal;HPM_P1;HPM_P2
2024/02/26 01:13:21;;;;;;;1.80;1.70;;;9.00;99.20;;;;;;5844487;23;20222;-89
2024/02/26 01:15:46;;;;;;;2.50;2.30;;;9.10;99.90;;;;;;4918679;29;20713;-88
2024/02/26 01:18:12;;;;;;;2.40;2.20;;;9.60;99.90;;;;;;4918148;29;20234;-88
2024/02/26 01:20:49;;;;;;;2.07;1.97;;;10.70;99.90;;;;;;4909499;29;20248;-88
2024/02/26 01:23:20;;;;;;;2.30;2.10;;;9.10;99.60;;;;;;4928106;29;20179;-87
2024/02/26 01:26:09;;;;;;;2.83;2.13;;;10.60;99.90;;;;;;4920310;29;20665;-88
2024/02/26 01:29:07;;;;;;;2.10;1.90;;;8.00;99.90;;;;;;4924362;29;20278;-87
2024/02/26 01:31:46;;;;;;;2.20;1.88;;;8.60;99.90;;;;;;4910162;29;20229;-87
2024/02/26 01:34:38;;;;;;;3.30;2.33;;;9.10;99.90;;;;;;4924453;29;20217;-87
2024/02/26 01:37:34;;;;;;;2.15;1.95;;;9.70;99.90;;;;;;4902601;29;20217;-88
2024/02/26 01:40:38;;;;;;;3.45;2.50;;;9.30;99.70;;;;;;4914536;29;20546;-87
2024/02/26 01:43:20;;;;;;;2.55;1.95;;;9.20;99.90;;;;;;4914508;29;20240;-87
2024/02/26 01:45:59;;;;;;;2.00;1.80;;;9.60;99.50;;;;;;4935954;28;20202;-87
2024/02/26 01:48:30;;;;;;;2.75;2.20;;;9.50;99.60;;;;;;4901411;29;20286;-87
2024/02/26 01:51:03;;;;;;;2.22;2.00;;;9.80;99.90;;;;;;4914107;29;20258;-88
2024/02/26 01:53:41;;;;;;;2.20;2.00;;;9.60;99.90;;;;;;4901014;29;20180;-87
2024/02/26 01:56:10;;;;;;;2.08;1.88;;;9.10;99.90;;;;;;4898374;29;20309;-87
2024/02/26 01:58:54;;;;;;;2.20;2.00;;;10.70;99.90;;;;;;4913461;29;20264;-87
2024/02/26 02:01:28;;;;;;;1.80;1.70;;;9.20;99.90;;;;;;4914677;29;20200;-87
2024/02/26 02:04:10;;;;;;;2.10;1.90;;;9.20;99.90;;;;;;4913250;29;20201;-87
2024/02/26 02:06:43;;;;;;;2.35;2.13;;;9.30;99.90;;;;;;4910655;29;20564;-87
2024/02/26 02:09:33;;;;;;;2.13;1.85;;;8.90;99.90;;;;;;4897384;29;20186;-87
2024/02/26 02:12:18;;;;;;;3.10;1.80;;;8.00;99.80;;;;;;4901195;29;20195;-87
2024/02/26 02:15:11;;;;;;;2.15;1.95;;;9.00;99.90;;;;;;4899801;29;20295;-87
2024/02/26 02:17:48;;;;;;;1.65;1.55;;;9.60;98.90;;;;;;4916518;29;20203;-87
2024/02/26 02:20:24;;;;;;;2.13;1.85;;;7.40;97.10;;;;;;4916548;29;20575;-88
2024/02/26 02:22:53;;;;;;;2.08;1.55;;;9.70;97.60;;;;;;4911532;29;20194;-87
2024/02/26 02:25:29;;;;;;;2.63;2.22;;;9.10;99.20;;;;;;4912410;29;20698;-87
2024/02/26 02:28:19;;;;;;;2.38;2.17;;;9.80;97.90;;;;;;4917388;29;20198;-87
2024/02/26 02:30:56;;;;;;;1.80;1.70;;;8.30;97.50;;;;;;4937339;28;20250;-88
2024/02/26 02:33:30;;;;;;;2.15;1.95;;;9.50;99.40;;;;;;4910852;28;20195;-87
2024/02/26 02:36:09;;;;;;;2.20;2.00;;;10.70;99.60;;;;;;4899912;29;20248;-87
2024/02/26 02:38:40;;;;;;;2.60;2.40;;;9.30;98.60;;;;;;4913786;29;20192;-87
2024/02/26 02:41:09;;;;;;;2.03;1.45;;;9.50;98.60;;;;;;4896999;29;20210;-88
2024/02/26 02:43:44;;;;;;;2.35;2.15;;;9.10;98.20;;;;;;4896907;29;20199;-88
2024/02/26 02:46:18;;;;;;;3.35;2.22;;;10.10;97.00;;;;;;4915722;29;20222;-88
2024/02/26 02:49:10;;;;;;;1.80;1.70;;;9.60;99.10;;;;;;4917650;29;20200;-87
2024/02/26 02:51:39;;;;;;;2.22;1.83;;;9.00;98.00;;;;;;4912578;29;20227;-87
2024/02/26 02:54:17;;;;;;;1.77;1.65;;;9.20;99.10;;;;;;4915532;29;20196;-88
2024/02/26 02:57:07;;;;;;;2.40;2.20;;;9.20;99.10;;;;;;4914607;29;20206;-87
2024/02/26 02:59:36;;;;;;;1.60;1.30;;;10.90;99.90;;;;;;4913462;29;20218;-88
2024/02/26 03:02:04;;;;;;;1.75;1.65;;;9.10;97.70;;;;;;4910520;29;20211;-88
2024/02/26 03:04:35;;;;;;;2.17;1.98;;;7.50;97.60;;;;;;4916307;29;20706;-87
2024/02/26 03:10:18;;;;;;;1.65;1.55;;;8.90;97.40;;;;;;4918442;29;20319;-87
2024/02/26 03:12:48;;;;;;;2.20;2.00;;;8.60;97.40;;;;;;4928905;29;20191;-87
2024/02/26 03:15:17;;;;;;;1.95;1.85;;;8.70;98.50;;;;;;4913349;29;20226;-88
2024/02/26 03:17:54;;;;;;;3.38;1.95;;;9.50;99.90;;;;;;4913281;29;20204;-87
2024/02/26 03:20:24;;;;;;;3.38;1.42;;;9.40;99.00;;;;;;4911805;29;20229;-88
2024/02/26 03:22:52;;;;;;;2.00;1.80;;;9.30;99.60;;;;;;4896811;29;20192;-88
2024/02/26 03:25:21;;;;;;;1.70;1.60;;;9.20;99.90;;;;;;4897778;29;20713;-87
2024/02/26 03:27:52;;;;;;;1.90;1.70;;;11.00;99.90;;;;;;4894961;29;20703;-87
2024/02/26 03:30:23;;;;;;;2.03;1.83;;;10.50;99.90;;;;;;4907932;29;20224;-87
2024/02/26 03:32:53;;;;;;;2.28;1.98;;;10.90;99.90;;;;;;4914569;29;20187;-88
2024/02/26 03:35:22;;;;;;;3.08;1.92;;;9.90;99.90;;;;;;4895911;29;20215;-88
2024/02/26 03:37:50;;;;;;;1.73;1.60;;;10.40;99.90;;;;;;4899795;29;20658;-88
2024/02/26 03:40:27;;;;;;;2.05;1.70;;;9.20;99.90;;;;;;4896318;29;20253;-88
2024/02/26 03:42:53;;;;;;;2.17;1.80;;;10.60;99.90;;;;;;4896393;29;20284;-88
2024/02/26 03:45:25;;;;;;;1.90;1.80;;;9.80;99.90;;;;;;4912568;29;20260;-88
2024/02/26 03:47:59;;;;;;;2.08;1.92;;;9.50;99.90;;;;;;4913543;29;20874;-88
2024/02/26 03:50:25;;;;;;;1.75;1.65;;;9.40;99.90;;;;;;4898377;29;20505;-88
2024/02/26 03:52:54;;;;;;;1.80;1.70;;;9.40;99.90;;;;;;4896871;29;20207;-88
2024/02/26 03:55:24;;;;;;;2.00;1.80;;;9.40;99.90;;;;;;4912606;29;20554;-88
2024/02/26 03:57:53;;;;;;;2.35;1.60;;;9.90;99.90;;;;;;4897650;29;20199;-88
2024/02/26 04:00:19;;;;;;;1.80;1.70;;;10.10;99.90;;;;;;4910958;29;20664;-88
2024/02/26 04:02:48;;;;;;;1.77;1.60;;;9.90;99.90;;;;;;4909186;29;20197;-88
2024/02/26 04:05:14;;;;;;;2.38;1.67;;;9.50;99.90;;;;;;4894190;29;20212;-88
2024/02/26 04:07:54;;;;;;;2.00;1.70;;;9.40;99.90;;;;;;4932505;28;20185;-88
2024/02/26 04:10:20;;;;;;;1.75;1.48;;;9.60;99.90;;;;;;4918945;29;20219;-88
2024/02/26 04:12:49;;;;;;;2.00;1.90;;;9.60;99.90;;;;;;4921616;28;20220;-88
2024/02/26 04:15:14;;;;;;;2.42;2.22;;;11.00;99.90;;;;;;4927649;29;20276;-88
2024/02/26 04:17:40;;;;;;;2.10;1.80;;;;;;;;;;4905318;29;20803;-88
2024/02/26 04:20:16;;;;;;;2.58;1.75;;;9.40;98.00;;;;;;4922615;29;20192;-88
2024/02/26 04:22:46;;;;;;;2.10;1.90;;;8.50;98.40;;;;;;4911251;29;20251;-88
2024/02/26 04:25:15;;;;;;;1.95;1.75;;;9.60;99.50;;;;;;4913582;29;20301;-89
2024/02/26 04:27:42;;;;;;;2.20;1.95;;;11.00;99.20;;;;;;4903978;29;20184;-88
2024/02/26 04:30:17;;;;;;;2.03;1.90;;;9.60;98.40;;;;;;4892918;29;20217;-88
2024/02/26 05:27:54;;;;;;;3.25;2.30;;;9.30;98.10;;;;;;5453189;23;20233;-87
2024/02/26 05:33:23;;;;;;;2.70;2.50;;;9.70;99.50;;;;;;4821386;29;20206;-87
2024/02/26 05:35:48;;;;;;;2.50;2.30;;;9.60;99.90;;;;;;4917958;29;20253;-89
2024/02/26 05:38:14;;;;;;;3.37;2.43;;;11.10;99.90;;;;;;4927329;29;20215;-87
2024/02/26 05:48:32;;;;;;;2.85;2.55;;;9.40;99.90;;;;;;4901734;29;20918;-87
2024/02/26 05:51:06;;;;;;;2.78;2.25;;;9.00;99.90;;;;;;4939915;29;20203;-87
2024/02/26 05:53:32;;;;;;;4.05;3.00;;;9.40;99.90;;;;;;4941007;29;20176;-88
2024/02/26 05:56:00;;;;;;;2.57;2.37;;;10.20;99.90;;;;;;4940791;28;20207;-88
2024/02/26 05:58:25;;;;;;;2.30;2.10;;;8.90;99.90;;;;;;4938844;28;20218;-88
2024/02/26 06:00:51;;;;;;;3.30;3.03;;;9.50;99.90;;;;;;4952375;28;20186;-88
2024/02/26 06:03:16;;;;;;;3.47;2.97;;;8.90;99.90;;;;;;4941927;28;20175;-88
2024/02/26 06:05:43;;;;;;;4.23;2.93;;;8.40;99.90;;;;;;4940170;28;20210;-88
2024/02/26 06:08:08;;;;;;;3.63;3.20;;;8.10;99.90;;;;;;4923577;29;20268;-88
2024/02/26 06:10:34;;;;;;;4.00;3.40;;;9.20;99.90;;;;;;4924575;29;20220;-88
2024/02/26 06:13:00;;;;;;;3.00;2.70;;;10.90;99.90;;;;;;4919621;29;20289;-88
2024/02/26 06:15:25;;;;;;;4.67;3.07;;;8.80;99.90;;;;;;4918524;29;20568;-88
2024/02/26 06:17:53;;;;;;;3.78;2.55;;;7.90;99.90;;;;;;4940975;29;20182;-88
2024/02/26 06:20:18;;;;;;;2.85;2.15;;;10.10;99.90;;;;;;4956741;28;20205;-88
2024/02/26 06:22:44;;;;;;;2.57;2.37;;;9.40;99.90;;;;;;4941469;28;20201;-88
2024/02/26 06:25:11;;;;;;;2.90;2.60;;;10.70;99.90;;;;;;4937732;29;20289;-88
2024/02/26 06:27:37;;;;;;;2.70;2.40;;;9.60;99.90;;;;;;4923379;29;20209;-88
2024/02/26 06:30:03;;;;;;;5.93;3.00;;;11.00;99.90;;;;;;4926570;29;20695;-88
2024/02/26 06:32:29;;;;;;;3.25;2.78;;;8.40;99.90;;;;;;4924277;29;20191;-88
2024/02/26 06:34:55;;;;;;;4.47;4.03;;;8.40;99.90;;;;;;4922491;28;20188;-87
2024/02/26 06:37:20;;;;;;;3.70;3.40;;;8.50;99.90;;;;;;4939113;28;20211;-89
2024/02/26 06:39:46;;;;;;;2.50;2.30;;;8.50;99.90;;;;;;4924190;29;20196;-88
2024/02/26 06:42:12;;;;;;;4.30;2.70;;;8.80;99.90;;;;;;4920928;29;20206;-88
2024/02/26 06:44:37;;;;;;;3.00;2.70;;;8.90;99.90;;;;;;4922822;29;20205;-89
2024/02/26 06:47:03;;;;;;;3.57;2.80;;;8.70;99.90;;;;;;4932777;29;20361;-88
2024/02/26 06:49:29;;;;;;;3.40;3.10;;;8.50;99.90;;;;;;4941828;29;20206;-88
2024/02/26 06:51:55;;;;;;;4.73;2.87;;;8.20;99.90;;;;;;4921210;29;20224;-88
2024/02/26 06:54:21;;;;;;;4.07;2.90;;;8.70;99.90;;;;;;4922142;29;20218;-88
2024/02/26 06:56:47;;;;;;;3.40;2.70;;;8.30;99.90;;;;;;4911732;29;20311;-88
2024/02/26 06:59:13;;;;;;;4.35;3.28;;;8.30;99.90;;;;;;4951268;28;20206;-88
2024/02/26 07:01:42;;;;;;;5.60;4.13;;;8.70;99.90;;;;;;4956037;28;20184;-88
2024/02/26 07:04:07;;;;;;;3.67;2.58;;;8.80;99.90;;;;;;4943282;28;20193;-88
2024/02/26 07:06:33;;;;;;;2.63;2.43;;;9.00;99.90;;;;;;4947157;28;20241;-87
2024/02/26 07:08:58;;;;;;;5.60;2.67;;;9.00;99.90;;;;;;4919960;29;20196;-88
2024/02/26 07:11:24;;;;;;;4.70;3.03;;;8.80;99.90;;;;;;4923377;29;20227;-87
2024/02/26 07:13:49;;;;;;;6.60;4.40;;;8.80;99.90;;;;;;4923189;29;20264;-88
2024/02/26 07:16:15;;;;;;;4.20;2.90;;;8.40;99.90;;;;;;4923858;29;20217;-88
2024/02/26 07:18:41;;;;;;;4.40;3.27;;;8.50;99.90;;;;;;4921317;29;20216;-88
2024/02/26 07:21:07;;;;;;;4.63;2.87;;;8.90;99.90;;;;;;4922936;29;20429;-88
2024/02/26 07:23:33;;;;;;;5.00;3.80;;;8.90;99.90;;;;;;4937272;29;20424;-88
2024/02/26 07:25:59;;;;;;;5.33;3.03;;;8.70;99.90;;;;;;4939281;29;20577;-88
2024/02/26 07:28:25;;;;;;;4.30;3.00;;;9.20;99.90;;;;;;4941243;29;20481;-88
2024/02/26 07:30:50;;;;;;;4.13;2.80;;;8.50;99.90;;;;;;4928209;29;20481;-89
2024/02/26 07:33:16;;;;;;;5.00;2.80;;;9.40;99.90;;;;;;4921668;29;20575;-89
2024/02/26 07:35:41;;;;;;;4.70;4.20;;;9.00;99.90;;;;;;4929533;29;20288;-89
2024/02/26 07:38:07;;;;;;;3.53;3.10;;;9.30;99.90;;;;;;4921668;29;20193;-89
2024/02/26 07:40:33;;;;;;;3.23;2.77;;;8.70;99.90;;;;;;4920321;29;20194;-89
2024/02/26 07:42:58;;;;;;;4.97;3.20;;;9.20;99.90;;;;;;4922659;29;20201;-89
2024/02/26 07:45:24;;;;;;;3.57;3.23;;;9.30;99.90;;;;;;4918117;29;20738;-89
2024/02/26 07:47:51;;;;;;;3.37;2.93;;;9.00;99.90;;;;;;4919490;29;20183;-87
2024/02/26 07:50:17;;;;;;;3.38;3.08;;;9.20;99.90;;;;;;4924811;29;20225;-88
2024/02/26 07:52:44;;;;;;;5.50;3.10;;;9.00;99.90;;;;;;4938578;29;20187;-88
2024/02/26 07:55:10;;;;;;;3.17;2.88;;;9.50;99.90;;;;;;4922415;29;20674;-88
2024/02/26 07:57:37;;;;;;;3.03;2.73;;;9.20;99.90;;;;;;4922879;29;20217;-88
2024/02/26 08:00:03;;;;;;;4.28;3.55;;;9.20;99.90;;;;;;4919877;29;20183;-88
2024/02/26 08:02:29;;;;;;;4.07;3.70;;;9.40;99.90;;;;;;4930943;29;20234;-88
2024/02/26 08:04:54;;;;;;;4.20;3.40;;;9.80;99.90;;;;;;4927748;29;20190;-88
2024/02/26 08:07:21;;;;;;;4.47;3.27;;;9.70;99.90;;;;;;4923962;29;20225;-88
2024/02/26 08:09:47;;;;;;;4.35;3.95;;;9.90;99.90;;;;;;4919002;29;20224;-88
2024/02/26 08:12:12;;;;;;;4.95;3.80;;;10.00;99.90;;;;;;4919814;29;20192;-88
2024/02/26 08:14:38;;;;;;;4.13;3.73;;;10.10;99.90;;;;;;4921965;29;20226;-88
2024/02/26 08:17:04;;;;;;;4.63;4.20;;;10.30;99.90;;;;;;4926746;29;20206;-88
2024/02/26 08:19:29;;;;;;;8.33;4.30;;;10.30;99.90;;;;;;4925359;29;20188;-88
2024/02/26 08:21:55;;;;;;;4.03;3.50;;;10.40;99.90;;;;;;4920694;29;20230;-89
2024/02/26 08:24:20;;;;;;;5.07;4.10;;;11.00;99.90;;;;;;4906707;29;20205;-89
2024/02/26 08:26:46;;;;;;;5.70;4.50;;;10.60;99.90;;;;;;4938006;29;20271;-88
2024/02/26 08:29:12;;;;;;;7.23;6.20;;;10.60;99.90;;;;;;4924417;29;20616;-88
2024/02/26 08:31:38;;;;;;;5.40;4.90;;;10.90;99.90;;;;;;4940622;29;20617;-90
2024/02/26 08:34:06;;;;;;;5.10;4.60;;;10.90;99.90;;;;;;4922627;28;20516;-90
2024/02/26 08:36:34;;;;;;;4.18;3.10;;;11.20;99.90;;;;;;4938076;29;20201;-90
2024/02/26 08:38:59;;;;;;;2.95;2.75;;;11.70;98.90;;;;;;4918691;29;20194;-90
2024/02/26 08:41:25;;;;;;;5.53;2.93;;;11.60;98.10;;;;;;4924331;29;20185;-89
2024/02/26 08:43:52;;;;;;;4.20;2.50;;;11.50;96.30;;;;;;4940218;28;20198;-90
2024/02/26 08:46:17;;;;;;;2.67;1.80;;;11.60;95.10;;;;;;4939510;29;20264;-90
2024/02/26 08:48:43;;;;;;;2.33;2.13;;;12.00;95.20;;;;;;4938394;29;20193;-90
2024/02/26 08:51:09;;;;;;;2.60;2.40;;;11.40;95.00;;;;;;4940797;28;20625;-90
2024/02/26 08:53:35;;;;;;;3.85;2.50;;;11.90;95.10;;;;;;4956184;28;20202;-88
2024/02/26 08:56:01;;;;;;;2.33;2.13;;;11.90;94.60;;;;;;4939085;29;20194;-87
2024/02/26 08:58:28;;;;;;;3.37;2.33;;;11.60;92.10;;;;;;4942478;28;20604;-88
2024/02/26 09:00:54;;;;;;;3.38;2.10;;;12.00;92.50;;;;;;4949858;28;20448;-89
2024/02/26 09:03:21;;;;;;;2.03;1.87;;;11.60;92.90;;;;;;4940438;29;20180;-88
2024/02/26 09:05:47;;;;;;;2.63;2.42;;;12.20;92.00;;;;;;4909069;29;20217;-89
2024/02/26 09:08:13;;;;;;;3.28;2.70;;;12.40;92.80;;;;;;4941033;28;20216;-88
2024/02/26 09:10:39;;;;;;;3.50;2.90;;;11.90;93.30;;;;;;4937829;28;20221;-88
2024/02/26 09:13:05;;;;;;;3.38;2.70;;;11.90;93.70;;;;;;4927634;29;20284;-89
2024/02/26 09:15:31;;;;;;;4.50;3.73;;;12.00;93.80;;;;;;4920333;29;20308;-88
2024/02/26 09:17:57;;;;;;;5.83;4.90;;;12.40;94.10;;;;;;4924095;29;21454;-89
2024/02/26 09:20:23;;;;;;;4.75;3.40;;;12.00;93.80;;;;;;4927122;29;20189;-89
2024/02/26 09:22:49;;;;;;;4.53;3.10;;;11.90;93.40;;;;;;4930115;29;20189;-89
2024/02/26 09:25:17;;;;;;;6.65;2.53;;;11.90;93.50;;;;;;4920541;29;20202;-89
2024/02/26 09:27:45;;;;;;;3.30;3.00;;;11.70;93.20;;;;;;4924238;29;20208;-89
2024/02/26 09:30:13;;;;;;;3.60;3.28;;;11.70;92.70;;;;;;4921430;29;20300;-89
2024/02/26 09:32:39;;;;;;;3.35;2.63;;;12.30;92.90;;;;;;4921211;29;20190;-89
2024/02/26 09:35:06;;;;;;;3.95;3.42;;;12.90;93.10;;;;;;4905141;29;20193;-89
2024/02/26 09:37:33;;;;;;;3.20;2.90;;;12.50;92.20;;;;;;4925361;29;20186;-89
2024/02/26 09:39:59;;;;;;;3.35;3.05;;;12.40;91.80;;;;;;4915707;29;20213;-89
2024/02/26 09:42:26;;;;;;;3.97;3.57;;;12.80;91.50;;;;;;4925162;29;20231;-89
2024/02/26 09:44:56;;;;;;;4.70;3.80;;;12.50;91.70;;;;;;4918818;29;20186;-89
2024/02/26 09:47:27;;;;;;;4.15;3.80;;;12.00;92.20;;;;;;4920360;29;20204;-89
2024/02/26 09:49:53;;;;;;;4.38;3.70;;;12.10;92.50;;;;;;4926515;29;20197;-88
2024/02/26 09:52:20;;;;;;;3.92;3.53;;;12.50;92.70;;;;;;4921822;29;20181;-88
2024/02/26 09:54:48;;;;;;;3.50;3.20;;;11.90;92.30;;;;;;4925993;29;20314;-88
2024/02/26 09:57:18;;;;;;;6.18;3.80;;;12.50;92.50;;;;;;4940286;29;20182;-88
2024/02/26 09:59:46;;;;;;;3.57;3.20;;;12.30;92.70;;;;;;4904912;29;20277;-88
2024/02/26 10:02:13;;;;;;;4.40;3.83;;;12.70;92.40;;;;;;4926209;29;20192;-88
2024/02/26 10:04:40;;;;;;;4.90;4.30;;;12.40;92.20;;;;;;4921961;29;20216;-88
2024/02/26 10:07:11;;;;;;;6.18;3.83;;;14.00;91.30;;;;;;4928693;29;20252;-88
2024/02/26 10:09:39;;;;;;;6.13;4.78;;;13.80;89.90;;;;;;4944963;28;20198;-88
2024/02/26 10:12:07;;;;;;;4.78;2.72;;;14.40;88.20;;;;;;4939468;29;20256;-88
2024/02/26 10:14:32;;;;;;;4.10;2.50;;;15.10;85.10;;;;;;4941765;29;20250;-88
2024/02/26 10:17:01;;;;;;;3.57;3.27;;;14.80;83.30;;;;;;4936377;29;20206;-88
2024/02/26 10:19:29;;;;;;;2.92;2.60;;;15.60;82.80;;;;;;4937049;29;20206;-88
2024/02/26 10:21:57;;;;;;;3.15;2.90;;;16.30;81.20;;;;;;4928110;29;20193;-88
2024/02/26 10:24:25;;;;;;;2.50;2.30;;;15.80;78.50;;;;;;4918284;29;20536;-89
2024/02/26 10:26:53;;;;;;;3.40;3.10;;;15.40;77.90;;;;;;4936351;29;20236;-89
2024/02/26 10:29:20;;;;;;;3.40;2.80;;;15.50;79.40;;;;;;4917663;29;21012;-89
2024/02/26 10:31:45;;;;;;;4.50;3.25;;;16.30;79.10;;;;;;4920157;29;20221;-88
2024/02/26 10:34:11;;;;;;;3.67;3.37;;;15.90;78.50;;;;;;4921043;29;20582;-89
2024/02/26 10:36:37;;;;;;;5.20;4.17;;;15.70;78.70;;;;;;4924835;29;20550;-88
2024/02/26 10:39:05;;;;;;;3.70;3.40;;;15.50;80.20;;;;;;4921060;29;20177;-89
2024/02/26 10:41:32;;;;;;;3.58;3.28;;;15.90;81.10;;;;;;4921192;29;20202;-89
2024/02/26 10:43:58;;;;;;;3.90;3.50;;;15.60;79.20;;;;;;4920955;29;20562;-88
2024/02/26 10:46:25;;;;;;;3.60;3.30;;;15.50;80.20;;;;;;4926228;29;20204;-88
2024/02/26 10:48:51;;;;;;;5.28;3.65;;;15.40;80.00;;;;;;4943938;28;20170;-88
2024/02/26 10:51:26;;;;;;;9.43;5.13;;;15.50;81.20;;;;;;4942814;28;20257;-89
2024/02/26 10:53:56;;;;;;;6.53;3.97;;;16.20;80.70;;;;;;4944521;28;20206;-89
2024/02/26 10:56:25;;;;;;;4.15;3.22;;;15.70;78.70;;;;;;4945309;28;20281;-89
2024/02/26 10:58:54;;;;;;;3.88;2.22;;;15.80;78.10;;;;;;4926563;29;20221;-89
2024/02/26 11:01:21;;;;;;;2.03;1.83;;;16.00;75.90;;;;;;4923145;29;20188;-90
2024/02/26 11:03:50;;;;;;;3.15;2.20;;;15.90;74.50;;;;;;4926093;29;20189;-89
2024/02/26 11:06:17;;;;;;;1.85;1.75;;;16.00;74.50;;;;;;4924715;29;20220;-89
2024/02/26 11:08:43;;;;;;;2.28;1.80;;;16.30;75.00;;;;;;4926085;29;20249;-89
2024/02/26 11:11:12;;;;;;;2.78;2.08;;;16.60;74.80;;;;;;4921192;29;20231;-89
2024/02/26 11:13:39;;;;;;;4.50;2.80;;;17.10;72.60;;;;;;4926381;29;20182;-90
2024/02/26 11:16:06;;;;;;;6.45;3.20;;;17.70;72.70;;;;;;4925906;29;20217;-90
2024/02/26 11:18:33;;;;;;;4.03;3.63;;;17.60;72.60;;;;;;4940482;29;20254;-90
2024/02/26 11:21:00;;;;;;;4.18;3.38;;;18.50;72.30;;;;;;4918146;29;20685;-90
2024/02/26 11:23:26;;;;;;;3.40;3.00;;;18.60;69.90;;;;;;4919645;29;20190;-90
2024/02/26 11:25:54;;;;;;;3.87;3.13;;;18.20;68.90;;;;;;4921938;29;20234;-89
2024/02/26 11:28:21;;;;;;;3.10;2.85;;;19.30;69.20;;;;;;4923210;29;20298;-89
2024/02/26 11:30:49;;;;;;;5.00;3.80;;;17.70;68.80;;;;;;4920504;29;20633;-89
2024/02/26 11:33:15;;;;;;;3.58;3.20;;;17.30;70.60;;;;;;4922028;29;20694;-89
2024/02/26 11:35:42;;;;;;;2.42;2.22;;;16.60;70.30;;;;;;4938966;28;20205;-90
2024/02/26 11:38:07;;;;;;;3.75;3.22;;;16.60;70.70;;;;;;4942049;29;20216;-90
2024/02/26 11:40:39;;;;;;;5.83;3.30;;;16.60;72.30;;;;;;4944464;28;20221;-90
2024/02/26 11:43:05;;;;;;;3.70;3.35;;;16.30;72.20;;;;;;4932742;28;20201;-90
2024/02/26 11:45:39;;;;;;;3.87;3.03;;;16.30;73.80;;;;;;4919270;29;20216;-89
2024/02/26 11:48:20;;;;;;;5.00;2.72;;;16.00;77.00;;;;;;4936918;29;20677;-90
2024/02/26 11:50:53;;;;;;;6.40;3.55;;;15.40;74.60;;;;;;4925198;29;20721;-89
2024/02/26 11:53:26;;;;;;;6.85;4.03;;;15.50;75.10;;;;;;4923214;29;20184;-89
2024/02/26 11:56:23;;;;;;;3.97;2.47;;;15.20;76.10;;;;;;4945543;28;20233;-90
2024/02/26 11:58:56;;;;;;;8.73;3.55;;;15.60;74.90;;;;;;4939247;28;20410;-89
2024/02/26 12:01:44;;;;;;;3.08;2.45;;;16.40;76.00;;;;;;4934481;29;20260;-90
2024/02/26 12:04:26;;;;;;;2.90;2.70;;;16.40;74.70;;;;;;4920676;29;20193;-90
2024/02/26 12:06:57;;;;;;;3.55;2.63;;;16.10;74.40;;;;;;4943240;29;20213;-89
2024/02/26 12:09:32;;;;;;;3.45;2.38;;;16.10;74.80;;;;;;4920009;29;20205;-89
2024/02/26 12:11:58;;;;;;;3.22;2.95;;;15.60;74.40;;;;;;4924813;29;20228;-89
2024/02/26 12:14:27;;;;;;;3.23;2.93;;;15.70;75.60;;;;;;4922561;29;20182;-89
2024/02/26 12:16:54;;;;;;;3.40;3.10;;;15.70;76.10;;;;;;4936292;29;20497;-90
2024/02/26 12:19:21;;;;;;;3.60;2.83;;;15.60;77.30;;;;;;4922997;29;20226;-90
2024/02/26 12:21:52;;;;;;;3.83;3.40;;;15.40;78.00;;;;;;4926785;29;20185;-89
2024/02/26 12:24:19;;;;;;;5.00;2.53;;;15.10;78.90;;;;;;4918828;29;20201;-89
2024/02/26 12:26:46;;;;;;;5.18;3.40;;;15.30;79.00;;;;;;4902736;29;20270;-90
2024/02/26 12:29:13;;;;;;;5.43;3.10;;;15.40;80.10;;;;;;4922685;29;20194;-89
2024/02/26 12:31:40;;;;;;;3.75;3.38;;;15.40;80.20;;;;;;4924433;29;20761;-90
2024/02/26 12:34:06;;;;;;;3.85;3.10;;;15.20;79.80;;;;;;4924127;29;20192;-90
2024/02/26 12:36:34;;;;;;;5.90;3.03;;;15.30;79.10;;;;;;4919905;29;20197;-90
2024/02/26 12:39:08;;;;;;;3.88;2.90;;;15.40;78.40;;;;;;4916589;29;20182;-88
2024/02/26 12:41:34;;;;;;;3.03;2.70;;;15.40;78.80;;;;;;4921478;29;20239;-88
2024/02/26 12:44:01;;;;;;;7.00;3.40;;;15.10;78.80;;;;;;4921254;29;20182;-88
2024/02/26 12:46:26;;;;;;;4.72;2.97;;;15.40;79.00;;;;;;4901668;29;21082;-88
2024/02/26 12:48:56;;;;;;;3.87;2.30;;;15.90;79.10;;;;;;4919478;29;20311;-88
2024/02/26 12:51:22;;;;;;;2.65;2.40;;;16.30;78.70;;;;;;4919235;29;20766;-89
2024/02/26 12:53:50;;;;;;;2.83;2.53;;;15.70;77.90;;;;;;4904719;29;20241;-89
2024/02/26 12:56:16;;;;;;;3.13;2.83;;;15.80;78.20;;;;;;4920983;29;20212;-89
2024/02/26 12:58:42;;;;;;;4.43;3.40;;;16.20;79.10;;;;;;4924824;29;20700;-89
2024/02/26 13:01:15;;;;;;;3.28;2.67;;;16.10;79.40;;;;;;4929231;28;20248;-89
2024/02/26 13:03:42;;;;;;;3.72;2.50;;;15.90;79.20;;;;;;4959546;28;20206;-88
2024/02/26 13:06:08;;;;;;;3.33;2.60;;;16.00;79.70;;;;;;4947234;29;20217;-89
2024/02/26 13:08:34;;;;;;;3.03;2.63;;;15.80;79.80;;;;;;4911382;29;20604;-89
2024/02/26 13:11:00;;;;;;;7.68;6.88;;;15.90;79.60;;;;;;4940995;29;20210;-89
2024/02/26 13:13:26;;;;;;;2.90;2.70;;;16.20;79.70;;;;;;4926179;29;20220;-89
2024/02/26 13:16:02;;;;;;;2.97;2.60;;;15.90;78.40;;;;;;4920622;29;20557;-89
2024/02/26 13:18:31;;;;;;;4.38;2.95;;;15.70;78.30;;;;;;4921325;29;20293;-89
2024/02/26 13:21:10;;;;;;;2.75;2.38;;;16.40;79.70;;;;;;4936092;29;20244;-89
2024/02/26 13:23:36;;;;;;;6.32;4.50;;;15.90;79.90;;;;;;4918082;29;20205;-89
2024/02/26 13:26:01;;;;;;;4.57;3.70;;;16.10;81.20;;;;;;4939068;29;20209;-89
2024/02/26 13:28:28;;;;;;;3.40;3.10;;;15.90;81.30;;;;;;4920597;29;20220;-89
2024/02/26 13:30:59;;;;;;;3.17;2.90;;;16.50;79.80;;;;;;4925051;29;20295;-89
2024/02/26 13:33:25;;;;;;;2.72;2.53;;;16.20;79.20;;;;;;4921249;29;20194;-88
2024/02/26 13:35:52;;;;;;;2.65;2.25;;;16.10;78.10;;;;;;4927071;29;20697;-89
2024/02/26 13:38:18;;;;;;;1.90;1.80;;;16.30;77.20;;;;;;4905343;29;20660;-89
2024/02/26 13:40:44;;;;;;;9.77;2.80;;;16.50;78.20;;;;;;4924266;29;20186;-88
2024/02/26 13:43:09;;;;;;;2.10;1.90;;;16.50;79.30;;;;;;4924258;29;20221;-89
2024/02/26 13:45:37;;;;;;;2.37;2.13;;;16.40;78.10;;;;;;4926200;29;20228;-89
2024/02/26 13:48:07;;;;;;;2.40;1.60;;;16.20;77.00;;;;;;4918229;29;20216;-89
2024/02/26 13:50:33;;;;;;;2.30;1.50;;;16.40;76.90;;;;;;4923311;29;20308;-89
2024/02/26 13:52:58;;;;;;;1.47;1.37;;;16.60;77.00;;;;;;4924047;29;20186;-89
2024/02/26 13:55:31;;;;;;;1.30;0.93;;;16.00;76.40;;;;;;4921840;29;21381;-89
2024/02/26 13:57:58;;;;;;;1.40;1.30;;;16.20;76.50;;;;;;4922104;29;20192;-89
2024/02/26 14:00:24;;;;;;;1.35;1.25;;;16.30;76.10;;;;;;4923049;29;20193;-89
2024/02/26 14:02:50;;;;;;;2.35;1.45;;;16.40;75.20;;;;;;4926488;29;20188;-89
2024/02/26 14:05:16;;;;;;;1.80;1.00;;;16.60;75.00;;;;;;4907220;29;20209;-89
2024/02/26 14:07:42;;;;;;;1.13;1.03;;;16.70;74.70;;;;;;4908085;29;20188;-89
2024/02/26 14:10:12;;;;;;;1.45;0.80;;;16.70;75.30;;;;;;4907616;29;20284;-89
2024/02/26 14:12:39;;;;;;;2.80;1.20;;;16.30;75.80;;;;;;4918345;29;20193;-89
2024/02/26 14:15:09;;;;;;;1.50;0.88;;;16.30;74.80;;;;;;4923103;29;20186;-89
2024/02/26 14:17:35;;;;;;;2.08;0.90;;;16.00;75.10;;;;;;4933070;29;20186;-89
2024/02/26 14:20:00;;;;;;;1.87;1.33;;;15.90;76.30;;;;;;4924236;29;20208;-89
2024/02/26 14:22:30;;;;;;;1.70;1.60;;;15.90;76.20;;;;;;4924750;29;20695;-89
2024/02/26 14:24:56;;;;;;;0.90;0.80;;;15.80;76.30;;;;;;4904936;29;20331;-90
2024/02/26 14:27:22;;;;;;;0.70;0.70;;;16.00;75.00;;;;;;4922059;29;20208;-89
2024/02/26 14:29:48;;;;;;;1.00;0.80;;;15.60;75.30;;;;;;4926400;29;20185;-89
2024/02/26 14:32:14;;;;;;;2.50;0.60;;;15.60;75.60;;;;;;4940440;28;20281;-90
2024/02/26 14:34:39;;;;;;;0.80;0.70;;;17.40;77.90;;;;;;4941505;28;20197;-89
2024/02/26 14:37:05;;;;;;;0.70;0.60;;;15.80;76.40;;;;;;4936283;29;20301;-89
2024/02/26 14:39:34;;;;;;;0.70;0.50;;;15.20;75.20;;;;;;4928766;29;20198;-89
2024/02/26 14:42:01;;;;;;;1.00;0.70;;;15.20;74.40;;;;;;4920667;29;20266;-89
2024/02/26 14:44:27;;;;;;;0.80;0.70;;;15.70;74.70;;;;;;4935125;29;20189;-89
2024/02/26 14:46:52;;;;;;;0.90;0.80;;;15.20;73.70;;;;;;4922344;29;20205;-89
2024/02/26 14:49:18;;;;;;;1.10;1.00;;;15.80;74.30;;;;;;4923751;29;20190;-89
2024/02/26 14:51:44;;;;;;;0.80;0.80;;;14.90;73.00;;;;;;4923612;29;20540;-89
2024/02/26 14:54:14;;;;;;;0.90;0.73;;;14.80;73.10;;;;;;4911774;29;20198;-89
2024/02/26 14:56:41;;;;;;;1.00;0.80;;;15.80;74.20;;;;;;4926428;29;20217;-89
2024/02/26 14:59:07;;;;;;;1.67;0.98;;;15.10;74.00;;;;;;4923632;29;20224;-90
2024/02/26 15:01:32;;;;;;;1.07;0.90;;;15.50;74.20;;;;;;4929095;29;20182;-90
2024/02/26 15:04:00;;;;;;;1.30;1.10;;;15.20;73.90;;;;;;4920008;29;20505;-89
2024/02/26 15:06:26;;;;;;;0.80;0.70;;;15.00;74.30;;;;;;4923332;29;20268;-90
2024/02/26 15:08:51;;;;;;;1.27;1.05;;;15.00;74.60;;;;;;4921828;29;20189;-90
2024/02/26 15:11:17;;;;;;;1.13;1.03;;;15.30;75.30;;;;;;4921924;29;20267;-90
2024/02/26 15:13:43;;;;;;;1.73;1.10;;;17.10;76.70;;;;;;4924906;29;20280;-90
2024/02/26 15:16:09;;;;;;;2.80;1.23;;;15.20;74.90;;;;;;4921409;29;20219;-90
2024/02/26 15:18:36;;;;;;;2.13;1.92;;;15.60;75.00;;;;;;4924490;29;20200;-90
2024/02/26 15:21:03;;;;;;;2.00;1.40;;;15.20;74.60;;;;;;4935680;29;20206;-90